Terminal Aerodrome Forecast
Issued by NWS

Home | Current Version | Previous Version | Text Only | Print | Product List | Glossary On
Versions: 1 2 3 4 5 6 7 8 9 10 11 12 13 14 15 16
000
FTUS44 KCRP 192334
TAFALI
TAF
KALI 192334Z 2000/2024 14012G20KT P6SM SCT025
      TEMPO 2000/2002 OVC025
     FM200200 14008KT P6SM OVC025
     FM200400 17006KT 5SM SHRA BR VCTS BKN015 BKN022CB
      TEMPO 2005/2008 VRB20G30KT 2SM +TSRA BR BKN025CB
     FM201000 VRB04KT 6SM BR VCSH BKN014
     FM201300 30008KT P6SM BKN025
     FM201600 32010KT P6SM SCT045=

USA.gov is the U.S. government's official web portal to all federal, state and local government web resources and services.